sensor_id;sensor_type;location;lat;lon;timestamp;pressure;altitude;pressure_sealevel;temperature;humidity
74232;BME280;62590;52.430;4.902;2022-11-20T08:24:56;100971.28;;;-3.51;66.47
74232;BME280;62590;52.430;4.902;2022-11-20T08:27:22;100968.59;;;-3.49;66.46
74232;BME280;62590;52.430;4.902;2022-11-20T08:29:48;100969.25;;;-3.43;66.47
74232;BME280;62590;52.430;4.902;2022-11-20T08:32:13;100973.50;;;-3.39;66.48
74232;BME280;62590;52.430;4.902;2022-11-20T08:34:38;100975.09;;;-3.33;66.48
74232;BME280;62590;52.430;4.902;2022-11-20T08:37:04;100965.28;;;-3.27;66.49
74232;BME280;62590;52.430;4.902;2022-11-20T08:39:29;100964.28;;;-3.23;66.48
74232;BME280;62590;52.430;4.902;2022-11-20T08:41:54;100970.28;;;-3.19;66.50
74232;BME280;62590;52.430;4.902;2022-11-20T08:44:20;100973.50;;;-3.11;66.49
74232;BME280;62590;52.430;4.902;2022-11-20T08:46:45;100977.72;;;-3.06;66.51
74232;BME280;62590;52.430;4.902;2022-11-20T08:49:12;100972.38;;;-3.03;66.50
74232;BME280;62590;52.430;4.902;2022-11-20T08:51:39;100965.25;;;-2.99;66.52
74232;BME280;62590;52.430;4.902;2022-11-20T08:54:05;100959.78;;;-2.91;66.51
74232;BME280;62590;52.430;4.902;2022-11-20T08:56:31;100960.59;;;-2.89;66.51
74232;BME280;62590;52.430;4.902;2022-11-20T08:58:57;100961.22;;;-2.83;66.53
74232;BME280;62590;52.430;4.902;2022-11-20T09:01:24;100956.69;;;-2.78;66.53
74232;BME280;62590;52.430;4.902;2022-11-20T09:03:49;100963.41;;;-2.69;66.54
74232;BME280;62590;52.430;4.902;2022-11-20T09:06:15;100953.66;;;-2.66;66.54
74232;BME280;62590;52.430;4.902;2022-11-20T09:08:41;100949.06;;;-2.59;66.54
74232;BME280;62590;52.430;4.902;2022-11-20T09:11:07;100932.66;;;-2.41;66.56
74232;BME280;62590;52.430;4.902;2022-11-20T09:13:33;100935.13;;;-2.37;66.55
74232;BME280;62590;52.430;4.902;2022-11-20T09:16:05;100928.91;;;-2.34;66.57
74232;BME280;62590;52.430;4.902;2022-11-20T09:18:31;100922.97;;;-2.39;66.55
74232;BME280;62590;52.430;4.902;2022-11-20T09:21:02;100918.13;;;-2.27;66.56
74232;BME280;62590;52.430;4.902;2022-11-20T09:23:31;100919.69;;;-2.21;66.57
74232;BME280;62590;52.430;4.902;2022-11-20T09:25:57;100928.56;;;-2.25;66.57
74232;BME280;62590;52.430;4.902;2022-11-20T09:28:25;100922.31;;;-2.21;66.57
74232;BME280;62590;52.430;4.902;2022-11-20T09:30:51;100915.28;;;-2.21;66.57
74232;BME280;62590;52.430;4.902;2022-11-20T09:33:17;100908.16;;;-2.17;66.58
74232;BME280;62590;52.430;4.902;2022-11-20T09:35:43;100898.25;;;-2.11;66.58
74232;BME280;62590;52.430;4.902;2022-11-20T09:38:09;100893.63;;;-2.04;66.60
74232;BME280;62590;52.430;4.902;2022-11-20T09:40:39;100893.72;;;-2.06;66.58
74232;BME280;62590;52.430;4.902;2022-11-20T09:46:18;100891.34;;;-1.90;66.61
74232;BME280;62590;52.430;4.902;2022-11-20T09:51:53;100885.22;;;-1.67;66.62
74232;BME280;62590;52.430;4.902;2022-11-20T09:54:35;100886.75;;;-1.62;66.61
74232;BME280;62590;52.430;4.902;2022-11-20T09:57:25;100884.69;;;-1.54;66.62
74232;BME280;62590;52.430;4.902;2022-11-20T10:00:00;100884.38;;;-1.46;66.64
74232;BME280;62590;52.430;4.902;2022-11-20T10:02:37;100875.25;;;-1.38;66.64
74232;BME280;62590;52.430;4.902;2022-11-20T10:05:10;100859.44;;;-1.36;66.64
74232;BME280;62590;52.430;4.902;2022-11-20T10:07:53;100852.06;;;-1.28;66.65
74232;BME280;62590;52.430;4.902;2022-11-20T10:10:36;100847.53;;;-1.25;66.65
74232;BME280;62590;52.430;4.902;2022-11-20T10:15:41;100851.03;;;-1.24;66.65
74232;BME280;62590;52.430;4.902;2022-11-20T10:20:40;100833.81;;;-1.11;66.66
74232;BME280;62590;52.430;4.902;2022-11-20T10:31:37;100812.44;;;-0.83;66.68
74232;BME280;62590;52.430;4.902;2022-11-20T10:42:44;100788.84;;;-0.66;66.70
74232;BME280;62590;52.430;4.902;2022-11-20T10:50:35;100770.69;;;-0.54;66.70
74232;BME280;62590;52.430;4.902;2022-11-20T10:53:29;100763.47;;;-0.49;66.71
74232;BME280;62590;52.430;4.902;2022-11-20T10:56:02;100759.97;;;-0.49;66.72
74232;BME280;62590;52.430;4.902;2022-11-20T10:58:43;100756.13;;;-0.42;66.71
74232;BME280;62590;52.430;4.902;2022-11-20T11:01:17;100750.72;;;-0.39;66.72
74232;BME280;62590;52.430;4.902;2022-11-20T11:03:43;100750.44;;;-0.33;66.73
74232;BME280;62590;52.430;4.902;2022-11-20T11:08:51;100738.75;;;-0.28;66.73
74232;BME280;62590;52.430;4.902;2022-11-20T11:11:23;100737.03;;;-0.29;66.73
74232;BME280;62590;52.430;4.902;2022-11-20T11:13:49;100742.16;;;-0.26;66.73
74232;BME280;62590;52.430;4.902;2022-11-20T11:16:26;100748.81;;;-0.17;66.73
74232;BME280;62590;52.430;4.902;2022-11-20T11:19:03;100750.59;;;-0.18;66.73
74232;BME280;62590;52.430;4.902;2022-11-20T11:21:29;100746.28;;;-0.20;66.73
74232;BME280;62590;52.430;4.902;2022-11-20T11:24:03;100745.31;;;-0.18;66.74
74232;BME280;62590;52.430;4.902;2022-11-20T11:26:29;100741.19;;;-0.23;66.73
74232;BME280;62590;52.430;4.902;2022-11-20T11:29:03;100729.78;;;-0.24;66.73
74232;BME280;62590;52.430;4.902;2022-11-20T11:31:31;100720.94;;;-0.23;66.74
74232;BME280;62590;52.430;4.902;2022-11-20T11:34:15;100728.00;;;-0.23;66.72
74232;BME280;62590;52.430;4.902;2022-11-20T11:36:41;100701.56;;;-0.22;66.74
74232;BME280;62590;52.430;4.902;2022-11-20T11:39:18;100697.16;;;-0.21;66.74
74232;BME280;62590;52.430;4.902;2022-11-20T11:41:45;100689.78;;;-0.15;66.74
74232;BME280;62590;52.430;4.902;2022-11-20T11:44:20;100677.16;;;-0.08;66.75
74232;BME280;62590;52.430;4.902;2022-11-20T11:47:26;100661.97;;;-0.03;66.74
74232;BME280;62590;52.430;4.902;2022-11-20T11:50:07;100651.22;;;0.02;66.75
74232;BME280;62590;52.430;4.902;2022-11-20T11:55:43;100651.63;;;0.11;66.76
74232;BME280;62590;52.430;4.902;2022-11-20T12:07:20;100654.63;;;0.04;66.75
74232;BME280;62590;52.430;4.902;2022-11-20T12:09:52;100645.25;;;-0.02;66.74
74232;BME280;62590;52.430;4.902;2022-11-20T12:12:23;100646.78;;;0.02;66.75
74232;BME280;62590;52.430;4.902;2022-11-20T12:14:53;100644.38;;;-0.03;66.75
74232;BME280;62590;52.430;4.902;2022-11-20T12:17:20;100636.69;;;-0.07;66.75
74232;BME280;62590;52.430;4.902;2022-11-20T12:19:45;100627.78;;;-0.05;66.74
74232;BME280;62590;52.430;4.902;2022-11-20T12:25:02;100624.28;;;-0.05;66.74
74232;BME280;62590;52.430;4.902;2022-11-20T12:27:52;100613.81;;;-0.07;66.74
74232;BME280;62590;52.430;4.902;2022-11-20T12:30:22;100612.25;;;-0.11;66.75
74232;BME280;62590;52.430;4.902;2022-11-20T12:35:44;100603.25;;;-0.07;66.75
74232;BME280;62590;52.430;4.902;2022-11-20T12:38:41;100597.97;;;-0.07;66.75
74232;BME280;62590;52.430;4.902;2022-11-20T12:47:38;100583.47;;;0.02;66.75
74232;BME280;62590;52.430;4.902;2022-11-20T12:53:07;100577.38;;;0.02;66.74
74232;BME280;62590;52.430;4.902;2022-11-20T12:55:56;100577.38;;;0.02;66.75
74232;BME280;62590;52.430;4.902;2022-11-20T12:58:33;100565.97;;;0.01;66.75
74232;BME280;62590;52.430;4.902;2022-11-20T13:01:45;100548.44;;;0.00;66.76
74232;BME280;62590;52.430;4.902;2022-11-20T13:06:46;100543.00;;;0.03;66.75
74232;BME280;62590;52.430;4.902;2022-11-20T13:09:15;100532.28;;;0.06;66.76
74232;BME280;62590;52.430;4.902;2022-11-20T13:19:37;100515.97;;;0.15;66.76
74232;BME280;62590;52.430;4.902;2022-11-20T13:22:03;100534.22;;;0.20;66.78
74232;BME280;62590;52.430;4.902;2022-11-20T13:24:30;100536.94;;;0.18;66.77
74232;BME280;62590;52.430;4.902;2022-11-20T13:27:04;100527.94;;;0.22;66.76
74232;BME280;62590;52.430;4.902;2022-11-20T13:29:31;100521.88;;;0.20;66.77
74232;BME280;62590;52.430;4.902;2022-11-20T13:32:16;100528.72;;;0.24;66.77
74232;BME280;62590;52.430;4.902;2022-11-20T13:34:59;100521.53;;;0.26;66.78
74232;BME280;62590;52.430;4.902;2022-11-20T13:37:34;100516.44;;;0.23;66.76
74232;BME280;62590;52.430;4.902;2022-11-20T13:42:36;100503.41;;;0.20;66.76
74232;BME280;62590;52.430;4.902;2022-11-20T13:45:21;100498.84;;;0.24;66.77
74232;BME280;62590;52.430;4.902;2022-11-20T13:47:48;100490.84;;;0.25;66.76
74232;BME280;62590;52.430;4.902;2022-11-20T13:50:14;100499.69;;;0.24;66.77
74232;BME280;62590;52.430;4.902;2022-11-20T13:52:58;100500.88;;;0.19;66.77
74232;BME280;62590;52.430;4.902;2022-11-20T13:55:35;100492.69;;;0.23;66.76
74232;BME280;62590;52.430;4.902;2022-11-20T13:58:24;100489.97;;;0.25;66.77
74232;BME280;62590;52.430;4.902;2022-11-20T14:01:00;100478.59;;;0.24;66.77
74232;BME280;62590;52.430;4.902;2022-11-20T14:03:29;100462.81;;;0.23;66.76
74232;BME280;62590;52.430;4.902;2022-11-20T14:05:59;100454.75;;;0.26;66.77
74232;BME280;62590;52.430;4.902;2022-11-20T14:08:40;100445.56;;;0.33;66.77
74232;BME280;62590;52.430;4.902;2022-11-20T14:11:22;100442.16;;;0.31;66.78
74232;BME280;62590;52.430;4.902;2022-11-20T14:13:55;100442.25;;;0.29;66.76
74232;BME280;62590;52.430;4.902;2022-11-20T14:16:21;100421.72;;;0.34;66.78
74232;BME280;62590;52.430;4.902;2022-11-20T14:18:47;100410.41;;;0.32;66.78
74232;BME280;62590;52.430;4.902;2022-11-20T14:21:22;100411.38;;;0.31;66.77
74232;BME280;62590;52.430;4.902;2022-11-20T14:23:47;100409.50;;;0.33;66.78
74232;BME280;62590;52.430;4.902;2022-11-20T14:26:16;100406.75;;;0.35;66.78
74232;BME280;62590;52.430;4.902;2022-11-20T14:28:48;100409.41;;;0.35;66.77
74232;BME280;62590;52.430;4.902;2022-11-20T14:31:22;100416.47;;;0.34;66.77
74232;BME280;62590;52.430;4.902;2022-11-20T14:33:49;100424.97;;;0.39;66.78
74232;BME280;62590;52.430;4.902;2022-11-20T14:36:20;100421.59;;;0.37;66.78
74232;BME280;62590;52.430;4.902;2022-11-20T14:38:46;100417.16;;;0.38;66.78
74232;BME280;62590;52.430;4.902;2022-11-20T14:41:20;100422.34;;;0.39;66.78
74232;BME280;62590;52.430;4.902;2022-11-20T14:43:56;100410.78;;;0.42;66.78
74232;BME280;62590;52.430;4.902;2022-11-20T14:46:23;100414.28;;;0.42;66.79
74232;BME280;62590;52.430;4.902;2022-11-20T14:49:00;100405.34;;;0.45;66.79
74232;BME280;62590;52.430;4.902;2022-11-20T14:51:37;100399.19;;;0.44;66.79
74232;BME280;62590;52.430;4.902;2022-11-20T14:56:42;100400.13;;;0.43;66.78
74232;BME280;62590;52.430;4.902;2022-11-20T14:59:23;100382.41;;;0.45;66.79
74232;BME280;62590;52.430;4.902;2022-11-20T15:02:05;100378.84;;;0.46;66.79
74232;BME280;62590;52.430;4.902;2022-11-20T15:04:30;100376.91;;;0.50;66.79
74232;BME280;62590;52.430;4.902;2022-11-20T15:06:58;100378.69;;;0.49;66.80
74232;BME280;62590;52.430;4.902;2022-11-20T15:09:24;100373.59;;;0.46;66.78
74232;BME280;62590;52.430;4.902;2022-11-20T15:12:01;100367.53;;;0.44;66.79
74232;BME280;62590;52.430;4.902;2022-11-20T15:14:29;100372.72;;;0.46;66.78
74232;BME280;62590;52.430;4.902;2022-11-20T15:16:55;100370.19;;;0.44;66.78
74232;BME280;62590;52.430;4.902;2022-11-20T15:19:23;100363.03;;;0.46;66.79
74232;BME280;62590;52.430;4.902;2022-11-20T15:21:49;100365.75;;;0.45;66.78
74232;BME280;62590;52.430;4.902;2022-11-20T15:24:15;100362.16;;;0.46;66.79
74232;BME280;62590;52.430;4.902;2022-11-20T15:26:41;100360.38;;;0.46;66.78
74232;BME280;62590;52.430;4.902;2022-11-20T15:29:11;100350.59;;;0.48;66.78
74232;BME280;62590;52.430;4.902;2022-11-20T15:31:38;100345.47;;;0.45;66.78
74232;BME280;62590;52.430;4.902;2022-11-20T15:34:10;100344.56;;;0.46;66.78
74232;BME280;62590;52.430;4.902;2022-11-20T15:36:36;100341.06;;;0.46;66.78
74232;BME280;62590;52.430;4.902;2022-11-20T15:39:02;100342.69;;;0.48;66.78
74232;BME280;62590;52.430;4.902;2022-11-20T15:41:27;100335.78;;;0.46;66.78
74232;BME280;62590;52.430;4.902;2022-11-20T15:43:53;100326.91;;;0.47;66.78
74232;BME280;62590;52.430;4.902;2022-11-20T15:46:23;100327.84;;;0.46;66.79
74232;BME280;62590;52.430;4.902;2022-11-20T15:48:54;100322.56;;;0.46;66.78
74232;BME280;62590;52.430;4.902;2022-11-20T15:53:54;100314.41;;;0.50;66.79
74232;BME280;62590;52.430;4.902;2022-11-20T15:56:20;100301.94;;;0.52;66.79
74232;BME280;62590;52.430;4.902;2022-11-20T15:58:45;100309.88;;;0.52;66.80
74232;BME280;62590;52.430;4.902;2022-11-20T16:01:16;100307.84;;;0.57;66.80
74232;BME280;62590;52.430;4.902;2022-11-20T16:03:42;100300.78;;;0.58;66.80
74232;BME280;62590;52.430;4.902;2022-11-20T16:06:07;100305.78;;;0.62;66.80
74232;BME280;62590;52.430;4.902;2022-11-20T16:08:33;100304.78;;;0.65;66.80
74232;BME280;62590;52.430;4.902;2022-11-20T16:10:59;100299.41;;;0.66;66.80
74232;BME280;62590;52.430;4.902;2022-11-20T16:13:24;100297.34;;;0.71;66.81
74232;BME280;62590;52.430;4.902;2022-11-20T16:16:19;100298.97;;;0.74;66.80
74232;BME280;62590;52.430;4.902;2022-11-20T16:18:45;100300.50;;;0.78;66.81
74232;BME280;62590;52.430;4.902;2022-11-20T16:21:11;100296.03;;;0.78;66.80
74232;BME280;62590;52.430;4.902;2022-11-20T16:23:38;100295.13;;;0.79;66.80
74232;BME280;62590;52.430;4.902;2022-11-20T16:26:16;100289.84;;;0.79;66.80
74232;BME280;62590;52.430;4.902;2022-11-20T16:28:43;100283.69;;;0.79;66.80
74232;BME280;62590;52.430;4.902;2022-11-20T16:31:19;100277.56;;;0.78;66.80
74232;BME280;62590;52.430;4.902;2022-11-20T16:33:59;100274.84;;;0.80;66.80
74232;BME280;62590;52.430;4.902;2022-11-20T16:36:26;100270.41;;;0.80;66.81
74232;BME280;62590;52.430;4.902;2022-11-20T16:39:00;100260.69;;;0.81;66.80
74232;BME280;62590;52.430;4.902;2022-11-20T16:41:28;100272.97;;;0.82;66.80
74232;BME280;62590;52.430;4.902;2022-11-20T16:43:56;100264.00;;;0.84;66.82
74232;BME280;62590;52.430;4.902;2022-11-20T16:46:23;100259.78;;;0.82;66.81
74232;BME280;62590;52.430;4.902;2022-11-20T16:49:12;100271.16;;;0.82;66.81
74232;BME280;62590;52.430;4.902;2022-11-20T16:51:38;100258.91;;;0.81;66.80
74232;BME280;62590;52.430;4.902;2022-11-20T16:54:08;100248.44;;;0.80;66.80
74232;BME280;62590;52.430;4.902;2022-11-20T16:56:33;100236.94;;;0.81;66.81
74232;BME280;62590;52.430;4.902;2022-11-20T16:59:00;100230.72;;;0.82;66.81
74232;BME280;62590;52.430;4.902;2022-11-20T17:01:26;100218.53;;;0.79;66.81
74232;BME280;62590;52.430;4.902;2022-11-20T17:04:04;100233.53;;;0.79;66.81
74232;BME280;62590;52.430;4.902;2022-11-20T17:06:41;100245.03;;;0.78;66.81
74232;BME280;62590;52.430;4.902;2022-11-20T17:09:08;100253.53;;;0.83;66.82
74232;BME280;62590;52.430;4.902;2022-11-20T17:11:35;100236.16;;;0.79;66.81
74232;BME280;62590;52.430;4.902;2022-11-20T17:14:01;100236.00;;;0.82;66.81
74232;BME280;62590;52.430;4.902;2022-11-20T17:16:28;100231.66;;;0.81;66.81
74232;BME280;62590;52.430;4.902;2022-11-20T17:18:55;100228.09;;;0.82;66.81
74232;BME280;62590;52.430;4.902;2022-11-20T17:21:21;100226.25;;;0.82;66.81
74232;BME280;62590;52.430;4.902;2022-11-20T17:23:46;100217.53;;;0.82;66.80
74232;BME280;62590;52.430;4.902;2022-11-20T17:26:20;100220.16;;;0.82;66.80
74232;BME280;62590;52.430;4.902;2022-11-20T17:28:58;100213.06;;;0.82;66.81
74232;BME280;62590;52.430;4.902;2022-11-20T17:31:25;100210.53;;;0.81;66.80
74232;BME280;62590;52.430;4.902;2022-11-20T17:33:51;100213.06;;;0.82;66.82
74232;BME280;62590;52.430;4.902;2022-11-20T17:36:17;100217.41;;;0.83;66.81
74232;BME280;62590;52.430;4.902;2022-11-20T17:38:43;100219.09;;;0.84;66.81
74232;BME280;62590;52.430;4.902;2022-11-20T17:41:14;100219.00;;;0.86;66.81
74232;BME280;62590;52.430;4.902;2022-11-20T17:43:40;100220.63;;;0.88;66.82
74232;BME280;62590;52.430;4.902;2022-11-20T17:46:17;100227.63;;;0.89;66.82
74232;BME280;62590;52.430;4.902;2022-11-20T17:48:45;100227.69;;;0.88;66.81
74232;BME280;62590;52.430;4.902;2022-11-20T17:51:16;100232.81;;;0.91;66.82
74232;BME280;62590;52.430;4.902;2022-11-20T17:53:43;100217.78;;;0.91;66.82
74232;BME280;62590;52.430;4.902;2022-11-20T17:56:09;100206.50;;;0.89;66.82
74232;BME280;62590;52.430;4.902;2022-11-20T17:58:53;100215.91;;;0.93;66.81
74232;BME280;62590;52.430;4.902;2022-11-20T18:01:18;100230.94;;;0.93;66.82
74232;BME280;62590;52.430;4.902;2022-11-20T18:03:44;100225.66;;;0.93;66.82
74232;BME280;62590;52.430;4.902;2022-11-20T18:06:21;100223.84;;;0.93;66.81
74232;BME280;62590;52.430;4.902;2022-11-20T18:08:48;100228.19;;;0.94;66.81
74232;BME280;62590;52.430;4.902;2022-11-20T18:11:18;100231.75;;;0.93;66.81
74232;BME280;62590;52.430;4.902;2022-11-20T18:13:45;100226.56;;;0.92;66.82
74232;BME280;62590;52.430;4.902;2022-11-20T18:16:31;100233.56;;;0.93;66.82
74232;BME280;62590;52.430;4.902;2022-11-20T18:18:57;100238.84;;;0.93;66.82
74232;BME280;62590;52.430;4.902;2022-11-20T18:21:24;100238.75;;;0.94;66.81
74232;BME280;62590;52.430;4.902;2022-11-20T18:23:50;100242.25;;;0.95;66.82
74232;BME280;62590;52.430;4.902;2022-11-20T18:26:16;100237.03;;;0.93;66.81
74232;BME280;62590;52.430;4.902;2022-11-20T18:28:42;100238.84;;;0.93;66.82
74232;BME280;62590;52.430;4.902;2022-11-20T18:31:08;100231.84;;;0.92;66.82
74232;BME280;62590;52.430;4.902;2022-11-20T18:33:34;100228.28;;;0.93;66.82
74232;BME280;62590;52.430;4.902;2022-11-20T18:36:18;100230.94;;;0.93;66.82
74232;BME280;62590;52.430;4.902;2022-11-20T18:38:45;100239.78;;;0.92;66.82
74232;BME280;62590;52.430;4.902;2022-11-20T18:41:19;100241.56;;;0.91;66.82
74232;BME280;62590;52.430;4.902;2022-11-20T18:44:06;100228.34;;;0.91;66.82
74232;BME280;62590;52.430;4.902;2022-11-20T18:46:51;100231.00;;;0.91;66.81
74232;BME280;62590;52.430;4.902;2022-11-20T18:49:16;100222.16;;;0.92;66.82
74232;BME280;62590;52.430;4.902;2022-11-20T18:51:42;100227.53;;;0.91;66.82
74232;BME280;62590;52.430;4.902;2022-11-20T18:54:09;100225.81;;;0.90;66.82
74232;BME280;62590;52.430;4.902;2022-11-20T18:56:35;100232.72;;;0.92;66.81
74232;BME280;62590;52.430;4.902;2022-11-20T18:59:01;100229.97;;;0.94;66.81
74232;BME280;62590;52.430;4.902;2022-11-20T19:01:27;100221.28;;;0.92;66.82
74232;BME280;62590;52.430;4.902;2022-11-20T19:03:52;100226.56;;;0.92;66.82
74232;BME280;62590;52.430;4.902;2022-11-20T19:06:18;100224.78;;;0.92;66.82
74232;BME280;62590;52.430;4.902;2022-11-20T19:08:43;100243.09;;;0.95;66.82
74232;BME280;62590;52.430;4.902;2022-11-20T19:11:10;100247.34;;;0.98;66.82
74232;BME280;62590;52.430;4.902;2022-11-20T19:13:37;100242.16;;;0.96;66.82
74232;BME280;62590;52.430;4.902;2022-11-20T19:16:08;100225.66;;;0.93;66.81
74232;BME280;62590;52.430;4.902;2022-11-20T19:18:34;100225.56;;;0.94;66.81
74232;BME280;62590;52.430;4.902;2022-11-20T19:21:11;100222.81;;;0.96;66.83
74232;BME280;62590;52.430;4.902;2022-11-20T19:23:37;100226.13;;;0.99;66.83
74232;BME280;62590;52.430;4.902;2022-11-20T19:26:03;100223.56;;;0.98;66.83
74232;BME280;62590;52.430;4.902;2022-11-20T19:28:32;100225.47;;;0.96;66.82
74232;BME280;62590;52.430;4.902;2022-11-20T19:31:09;100228.09;;;0.96;66.82
74232;BME280;62590;52.430;4.902;2022-11-20T19:33:35;100224.69;;;0.94;66.81
74232;BME280;62590;52.430;4.902;2022-11-20T19:38:36;100231.69;;;0.95;66.83
74232;BME280;62590;52.430;4.902;2022-11-20T19:41:03;100227.16;;;0.97;66.83
74232;BME280;62590;52.430;4.902;2022-11-20T19:43:29;100240.28;;;0.98;66.82
74232;BME280;62590;52.430;4.902;2022-11-20T19:45:54;100242.06;;;0.98;66.82
74232;BME280;62590;52.430;4.902;2022-11-20T19:48:19;100245.47;;;1.00;66.82
74232;BME280;62590;52.430;4.902;2022-11-20T19:50:45;100236.69;;;0.99;66.82
74232;BME280;62590;52.430;4.902;2022-11-20T19:53:10;100249.91;;;0.99;66.83
74232;BME280;62590;52.430;4.902;2022-11-20T19:55:36;100250.75;;;1.00;66.81
74232;BME280;62590;52.430;4.902;2022-11-20T19:58:02;100251.50;;;1.02;66.83
74232;BME280;62590;52.430;4.902;2022-11-20T20:00:27;100248.88;;;1.02;66.82
74232;BME280;62590;52.430;4.902;2022-11-20T20:02:54;100248.13;;;1.00;66.82
74232;BME280;62590;52.430;4.902;2022-11-20T20:05:20;100253.19;;;1.03;66.83
74232;BME280;62590;52.430;4.902;2022-11-20T20:07:45;100254.06;;;1.04;66.83
74232;BME280;62590;52.430;4.902;2022-11-20T20:10:10;100257.47;;;1.06;66.82
74232;BME280;62590;52.430;4.902;2022-11-20T20:12:36;100254.91;;;1.04;66.83
74232;BME280;62590;52.430;4.902;2022-11-20T20:15:01;100253.28;;;1.02;66.83
74232;BME280;62590;52.430;4.902;2022-11-20T20:17:26;100250.75;;;1.00;66.82
74232;BME280;62590;52.430;4.902;2022-11-20T20:19:52;100249.78;;;1.01;66.82
74232;BME280;62590;52.430;4.902;2022-11-20T20:22:17;100254.41;;;0.97;66.83
74232;BME280;62590;52.430;4.902;2022-11-20T20:24:42;100259.44;;;1.02;66.83
74232;BME280;62590;52.430;4.902;2022-11-20T20:27:08;100258.38;;;1.05;66.83
74232;BME280;62590;52.430;4.902;2022-11-20T20:29:33;100263.09;;;0.99;66.81
74232;BME280;62590;52.430;4.902;2022-11-20T20:31:58;100260.28;;;1.03;66.83
74232;BME280;62590;52.430;4.902;2022-11-20T20:34:25;100269.06;;;1.03;66.84
74232;BME280;62590;52.430;4.902;2022-11-20T20:36:54;100262.09;;;1.02;66.83
74232;BME280;62590;52.430;4.902;2022-11-20T20:39:19;100270.09;;;1.01;66.82
74232;BME280;62590;52.430;4.902;2022-11-20T20:41:45;100269.81;;;1.05;66.82
74232;BME280;62590;52.430;4.902;2022-11-20T20:44:10;100267.25;;;1.04;66.83
74232;BME280;62590;52.430;4.902;2022-11-20T20:46:54;100270.75;;;1.04;66.83
74232;BME280;62590;52.430;4.902;2022-11-20T20:49:19;100275.00;;;1.07;66.82
74232;BME280;62590;52.430;4.902;2022-11-20T20:51:44;100273.13;;;1.09;66.83
74232;BME280;62590;52.430;4.902;2022-11-20T20:54:10;100283.03;;;1.05;66.82
74232;BME280;62590;52.430;4.902;2022-11-20T20:56:35;100283.78;;;1.07;66.83
74232;BME280;62590;52.430;4.902;2022-11-20T20:59:02;100283.97;;;1.04;66.82
74232;BME280;62590;52.430;4.902;2022-11-20T21:01:27;100286.09;;;0.97;66.82
74232;BME280;62590;52.430;4.902;2022-11-20T21:03:54;100292.00;;;1.03;66.84
74232;BME280;62590;52.430;4.902;2022-11-20T21:06:20;100295.91;;;0.95;66.83
74232;BME280;62590;52.430;4.902;2022-11-20T21:08:45;100290.72;;;0.94;66.81
74232;BME280;62590;52.430;4.902;2022-11-20T21:11:20;100299.22;;;0.99;66.81
74232;BME280;62590;52.430;4.902;2022-11-20T21:13:46;100310.75;;;0.98;66.83
74232;BME280;62590;52.430;4.902;2022-11-20T21:16:13;100305.66;;;0.95;66.83
74232;BME280;62590;52.430;4.902;2022-11-20T21:18:39;100308.00;;;0.99;66.82
74232;BME280;62590;52.430;4.902;2022-11-20T21:21:06;100282.81;;;0.94;66.82
74232;BME280;62590;52.430;4.902;2022-11-20T21:23:51;100293.72;;;0.88;66.83
74232;BME280;62590;52.430;4.902;2022-11-20T21:26:18;100312.19;;;0.88;66.81
74232;BME280;62590;52.430;4.902;2022-11-20T21:28:43;100314.38;;;0.81;66.80
74232;BME280;62590;52.430;4.902;2022-11-20T21:31:14;100322.75;;;0.88;66.81
74232;BME280;62590;52.430;4.902;2022-11-20T21:36:07;100328.59;;;0.79;66.80
74232;BME280;62590;52.430;4.902;2022-11-20T21:38:33;100339.34;;;0.76;66.81
74232;BME280;62590;52.430;4.902;2022-11-20T21:40:59;100337.28;;;0.81;66.80
74232;BME280;62590;52.430;4.902;2022-11-20T21:43:25;100338.56;;;0.74;66.80
74232;BME280;62590;52.430;4.902;2022-11-20T21:45:50;100334.91;;;0.76;66.81
74232;BME280;62590;52.430;4.902;2022-11-20T21:48:16;100328.59;;;0.79;66.80
74232;BME280;62590;52.430;4.902;2022-11-20T21:50:42;100337.13;;;0.68;66.79
74232;BME280;62590;52.430;4.902;2022-11-20T21:53:07;100333.09;;;0.77;66.81
74232;BME280;62590;52.430;4.902;2022-11-20T21:55:33;100330.47;;;0.77;66.81
74232;BME280;62590;52.430;4.902;2022-11-20T21:57:58;100328.16;;;0.71;66.80
74232;BME280;62590;52.430;4.902;2022-11-20T22:00:23;100326.28;;;0.73;66.80
74232;BME280;62590;52.430;4.902;2022-11-20T22:02:48;100309.69;;;0.71;66.80
74232;BME280;62590;52.430;4.902;2022-11-20T22:05:14;100317.53;;;0.72;66.81
74232;BME280;62590;52.430;4.902;2022-11-20T22:07:43;100326.66;;;0.67;66.80
74232;BME280;62590;52.430;4.902;2022-11-20T22:10:10;100338.72;;;0.71;66.80
74232;BME280;62590;52.430;4.902;2022-11-20T22:12:36;100342.22;;;0.71;66.80
74232;BME280;62590;52.430;4.902;2022-11-20T22:15:01;100342.50;;;0.67;66.79
74232;BME280;62590;52.430;4.902;2022-11-20T22:17:26;100349.38;;;0.69;66.81
74232;BME280;62590;52.430;4.902;2022-11-20T22:20:10;100366.06;;;0.70;66.81
74232;BME280;62590;52.430;4.902;2022-11-20T22:22:36;100363.69;;;0.65;66.80
74232;BME280;62590;52.430;4.902;2022-11-20T22:25:03;100367.94;;;0.68;66.79
74232;BME280;62590;52.430;4.902;2022-11-20T22:27:29;100375.78;;;0.69;66.80
74232;BME280;62590;52.430;4.902;2022-11-20T22:29:54;100380.81;;;0.74;66.79
74232;BME280;62590;52.430;4.902;2022-11-20T22:32:19;100367.75;;;0.71;66.81
74232;BME280;62590;52.430;4.902;2022-11-20T22:34:44;100376.28;;;0.76;66.79
74232;BME280;62590;52.430;4.902;2022-11-20T22:37:11;100386.00;;;0.75;66.79
74232;BME280;62590;52.430;4.902;2022-11-20T22:39:36;100379.28;;;0.70;66.80
74232;BME280;62590;52.430;4.902;2022-11-20T22:42:01;100378.50;;;0.68;66.79
74232;BME280;62590;52.430;4.902;2022-11-20T22:44:27;100376.88;;;0.65;66.80
74232;BME280;62590;52.430;4.902;2022-11-20T22:46:52;100368.81;;;0.68;66.79
74232;BME280;62590;52.430;4.902;2022-11-20T22:49:17;100352.44;;;0.62;66.78
74232;BME280;62590;52.430;4.902;2022-11-20T22:51:43;100340.72;;;0.52;66.78
74232;BME280;62590;52.430;4.902;2022-11-20T22:54:11;100353.28;;;0.47;66.78
74232;BME280;62590;52.430;4.902;2022-11-20T22:56:37;100372.13;;;0.56;66.79
74232;BME280;62590;52.430;4.902;2022-11-20T22:59:03;100378.16;;;0.58;66.79
74232;BME280;62590;52.430;4.902;2022-11-20T23:01:30;100373.16;;;0.54;66.79